sensor_id;sensor_type;location;lat;lon;timestamp;P1;durP1;ratioP1;P2;durP2;ratioP2
36061;SDS011;22123;52.412;20.970;2023-08-20T00:01:32;4.78;;;3.38;;
36061;SDS011;22123;52.412;20.970;2023-08-20T00:03:58;2.10;;;1.90;;
36061;SDS011;22123;52.412;20.970;2023-08-20T00:06:24;2.30;;;1.73;;
36061;SDS011;22123;52.412;20.970;2023-08-20T00:08:50;3.42;;;2.40;;
36061;SDS011;22123;52.412;20.970;2023-08-20T00:11:16;3.05;;;2.03;;
36061;SDS011;22123;52.412;20.970;2023-08-20T00:13:42;3.50;;;2.97;;
36061;SDS011;22123;52.412;20.970;2023-08-20T00:16:08;2.45;;;1.73;;
36061;SDS011;22123;52.412;20.970;2023-08-20T00:18:35;3.20;;;2.08;;
36061;SDS011;22123;52.412;20.970;2023-08-20T00:21:01;2.33;;;1.85;;
36061;SDS011;22123;52.412;20.970;2023-08-20T00:23:27;4.90;;;3.15;;
36061;SDS011;22123;52.412;20.970;2023-08-20T00:28:20;2.63;;;2.25;;
36061;SDS011;22123;52.412;20.970;2023-08-20T00:30:46;3.40;;;2.97;;
36061;SDS011;22123;52.412;20.970;2023-08-20T00:35:37;3.75;;;2.22;;
36061;SDS011;22123;52.412;20.970;2023-08-20T00:40:30;4.60;;;2.00;;
36061;SDS011;22123;52.412;20.970;2023-08-20T00:42:56;2.53;;;1.52;;
36061;SDS011;22123;52.412;20.970;2023-08-20T00:45:22;5.22;;;2.83;;
36061;SDS011;22123;52.412;20.970;2023-08-20T00:47:49;3.20;;;2.25;;
36061;SDS011;22123;52.412;20.970;2023-08-20T00:50:16;4.15;;;2.40;;
36061;SDS011;22123;52.412;20.970;2023-08-20T00:52:42;3.75;;;2.63;;
36061;SDS011;22123;52.412;20.970;2023-08-20T00:55:09;3.53;;;3.00;;
36061;SDS011;22123;52.412;20.970;2023-08-20T00:57:36;2.53;;;2.17;;
36061;SDS011;22123;52.412;20.970;2023-08-20T01:00:03;3.70;;;2.67;;
36061;SDS011;22123;52.412;20.970;2023-08-20T01:02:29;2.42;;;2.13;;
36061;SDS011;22123;52.412;20.970;2023-08-20T01:04:55;4.55;;;2.47;;
36061;SDS011;22123;52.412;20.970;2023-08-20T01:12:51;2.58;;;1.95;;
36061;SDS011;22123;52.412;20.970;2023-08-20T01:17:43;3.60;;;2.38;;
36061;SDS011;22123;52.412;20.970;2023-08-20T01:20:09;3.53;;;1.85;;
36061;SDS011;22123;52.412;20.970;2023-08-20T01:28:24;4.05;;;2.13;;
36061;SDS011;22123;52.412;20.970;2023-08-20T01:30:53;3.22;;;2.15;;
36061;SDS011;22123;52.412;20.970;2023-08-20T01:33:21;2.63;;;2.42;;
36061;SDS011;22123;52.412;20.970;2023-08-20T01:38:12;3.90;;;2.83;;
36061;SDS011;22123;52.412;20.970;2023-08-20T01:40:39;5.22;;;2.45;;
36061;SDS011;22123;52.412;20.970;2023-08-20T01:45:31;3.83;;;3.03;;
36061;SDS011;22123;52.412;20.970;2023-08-20T01:47:57;4.20;;;2.35;;
36061;SDS011;22123;52.412;20.970;2023-08-20T01:52:48;2.28;;;1.77;;
36061;SDS011;22123;52.412;20.970;2023-08-20T01:57:40;4.03;;;2.67;;
36061;SDS011;22123;52.412;20.970;2023-08-20T02:02:31;3.30;;;2.53;;
36061;SDS011;22123;52.412;20.970;2023-08-20T02:07:25;3.25;;;2.15;;
36061;SDS011;22123;52.412;20.970;2023-08-20T02:12:17;3.83;;;1.98;;
36061;SDS011;22123;52.412;20.970;2023-08-20T02:14:43;3.88;;;2.10;;
36061;SDS011;22123;52.412;20.970;2023-08-20T02:19:35;4.55;;;2.60;;
36061;SDS011;22123;52.412;20.970;2023-08-20T02:24:27;3.42;;;2.25;;
36061;SDS011;22123;52.412;20.970;2023-08-20T02:29:18;2.17;;;1.75;;
36061;SDS011;22123;52.412;20.970;2023-08-20T02:31:44;4.05;;;2.17;;
36061;SDS011;22123;52.412;20.970;2023-08-20T02:36:36;3.78;;;2.22;;
36061;SDS011;22123;52.412;20.970;2023-08-20T02:41:27;4.00;;;3.05;;
36061;SDS011;22123;52.412;20.970;2023-08-20T02:46:19;4.28;;;2.13;;
36061;SDS011;22123;52.412;20.970;2023-08-20T02:51:11;1.95;;;1.75;;
36061;SDS011;22123;52.412;20.970;2023-08-20T02:56:03;4.90;;;2.55;;
36061;SDS011;22123;52.412;20.970;2023-08-20T02:58:29;4.13;;;2.75;;
36061;SDS011;22123;52.412;20.970;2023-08-20T03:03:20;3.58;;;2.85;;
36061;SDS011;22123;52.412;20.970;2023-08-20T03:05:46;2.88;;;2.03;;
36061;SDS011;22123;52.412;20.970;2023-08-20T03:10:38;2.78;;;2.17;;
36061;SDS011;22123;52.412;20.970;2023-08-20T03:15:30;3.17;;;2.25;;
36061;SDS011;22123;52.412;20.970;2023-08-20T03:17:56;5.20;;;2.85;;
36061;SDS011;22123;52.412;20.970;2023-08-20T03:22:48;4.05;;;2.30;;
36061;SDS011;22123;52.412;20.970;2023-08-20T03:27:39;6.53;;;3.60;;
36061;SDS011;22123;52.412;20.970;2023-08-20T03:30:05;4.25;;;2.70;;
36061;SDS011;22123;52.412;20.970;2023-08-20T03:32:32;3.63;;;2.97;;
36061;SDS011;22123;52.412;20.970;2023-08-20T03:37:23;3.78;;;2.55;;
36061;SDS011;22123;52.412;20.970;2023-08-20T03:42:15;9.38;;;3.67;;
36061;SDS011;22123;52.412;20.970;2023-08-20T03:47:06;4.47;;;2.05;;
36061;SDS011;22123;52.412;20.970;2023-08-20T03:51:58;3.05;;;2.03;;
36061;SDS011;22123;52.412;20.970;2023-08-20T03:56:49;3.15;;;2.72;;
36061;SDS011;22123;52.412;20.970;2023-08-20T04:01:41;3.80;;;2.38;;
36061;SDS011;22123;52.412;20.970;2023-08-20T04:06:32;4.60;;;3.13;;
36061;SDS011;22123;52.412;20.970;2023-08-20T04:11:24;3.35;;;2.20;;
36061;SDS011;22123;52.412;20.970;2023-08-20T04:16:15;4.78;;;2.78;;
36061;SDS011;22123;52.412;20.970;2023-08-20T04:21:07;3.00;;;2.80;;
36061;SDS011;22123;52.412;20.970;2023-08-20T04:25:58;4.63;;;3.50;;
36061;SDS011;22123;52.412;20.970;2023-08-20T04:28:24;3.17;;;2.13;;
36061;SDS011;22123;52.412;20.970;2023-08-20T04:33:19;2.95;;;2.55;;
36061;SDS011;22123;52.412;20.970;2023-08-20T04:35:45;3.92;;;2.90;;
36061;SDS011;22123;52.412;20.970;2023-08-20T04:40:36;3.42;;;2.63;;
36061;SDS011;22123;52.412;20.970;2023-08-20T04:43:02;4.15;;;2.85;;
36061;SDS011;22123;52.412;20.970;2023-08-20T04:47:54;4.25;;;2.63;;
36061;SDS011;22123;52.412;20.970;2023-08-20T04:52:45;5.63;;;2.95;;
36061;SDS011;22123;52.412;20.970;2023-08-20T04:55:11;5.05;;;3.30;;
36061;SDS011;22123;52.412;20.970;2023-08-20T05:00:03;3.25;;;2.20;;
36061;SDS011;22123;52.412;20.970;2023-08-20T05:02:29;5.45;;;2.88;;
36061;SDS011;22123;52.412;20.970;2023-08-20T05:04:55;4.20;;;2.60;;
36061;SDS011;22123;52.412;20.970;2023-08-20T05:07:21;5.65;;;4.10;;
36061;SDS011;22123;52.412;20.970;2023-08-20T05:12:12;3.38;;;2.58;;
36061;SDS011;22123;52.412;20.970;2023-08-20T05:14:38;4.28;;;3.78;;
36061;SDS011;22123;52.412;20.970;2023-08-20T05:19:30;5.93;;;4.07;;
36061;SDS011;22123;52.412;20.970;2023-08-20T05:21:56;7.63;;;4.82;;
36061;SDS011;22123;52.412;20.970;2023-08-20T05:24:22;7.30;;;4.00;;
36061;SDS011;22123;52.412;20.970;2023-08-20T05:26:50;7.68;;;4.82;;
36061;SDS011;22123;52.412;20.970;2023-08-20T05:29:31;6.90;;;4.65;;
36061;SDS011;22123;52.412;20.970;2023-08-20T05:31:57;8.90;;;4.68;;
36061;SDS011;22123;52.412;20.970;2023-08-20T05:36:49;7.47;;;4.90;;
36061;SDS011;22123;52.412;20.970;2023-08-20T05:41:40;7.45;;;4.25;;
36061;SDS011;22123;52.412;20.970;2023-08-20T05:44:06;9.13;;;4.20;;
36061;SDS011;22123;52.412;20.970;2023-08-20T05:48:58;5.82;;;4.88;;
36061;SDS011;22123;52.412;20.970;2023-08-20T05:51:24;6.78;;;4.65;;
36061;SDS011;22123;52.412;20.970;2023-08-20T05:53:50;6.32;;;4.15;;
36061;SDS011;22123;52.412;20.970;2023-08-20T05:58:41;8.10;;;4.85;;
36061;SDS011;22123;52.412;20.970;2023-08-20T06:01:07;7.60;;;4.47;;
36061;SDS011;22123;52.412;20.970;2023-08-20T06:03:33;7.38;;;4.20;;
36061;SDS011;22123;52.412;20.970;2023-08-20T06:05:59;5.63;;;4.15;;
36061;SDS011;22123;52.412;20.970;2023-08-20T06:08:25;7.47;;;4.05;;
36061;SDS011;22123;52.412;20.970;2023-08-20T06:10:51;7.88;;;4.20;;
36061;SDS011;22123;52.412;20.970;2023-08-20T06:13:16;8.35;;;5.35;;
36061;SDS011;22123;52.412;20.970;2023-08-20T06:15:42;5.25;;;3.92;;
36061;SDS011;22123;52.412;20.970;2023-08-20T06:18:08;6.35;;;4.47;;
36061;SDS011;22123;52.412;20.970;2023-08-20T06:23:00;7.32;;;4.55;;
36061;SDS011;22123;52.412;20.970;2023-08-20T06:25:25;10.57;;;5.45;;
36061;SDS011;22123;52.412;20.970;2023-08-20T06:27:51;9.70;;;5.97;;
36061;SDS011;22123;52.412;20.970;2023-08-20T06:30:17;8.82;;;4.75;;
36061;SDS011;22123;52.412;20.970;2023-08-20T06:32:44;9.45;;;6.78;;
36061;SDS011;22123;52.412;20.970;2023-08-20T06:35:10;12.13;;;6.38;;
36061;SDS011;22123;52.412;20.970;2023-08-20T06:37:38;6.18;;;5.00;;
36061;SDS011;22123;52.412;20.970;2023-08-20T06:40:04;8.65;;;6.25;;
36061;SDS011;22123;52.412;20.970;2023-08-20T06:42:31;8.00;;;4.78;;
36061;SDS011;22123;52.412;20.970;2023-08-20T06:44:57;9.30;;;5.28;;
36061;SDS011;22123;52.412;20.970;2023-08-20T06:47:23;6.85;;;4.97;;
36061;SDS011;22123;52.412;20.970;2023-08-20T06:49:49;8.27;;;5.40;;
36061;SDS011;22123;52.412;20.970;2023-08-20T06:52:15;6.93;;;4.53;;
36061;SDS011;22123;52.412;20.970;2023-08-20T06:54:41;10.18;;;5.00;;
36061;SDS011;22123;52.412;20.970;2023-08-20T06:57:07;9.68;;;5.05;;
36061;SDS011;22123;52.412;20.970;2023-08-20T06:59:33;8.30;;;5.25;;
36061;SDS011;22123;52.412;20.970;2023-08-20T07:01:59;9.02;;;5.63;;
36061;SDS011;22123;52.412;20.970;2023-08-20T07:04:25;9.27;;;5.30;;
36061;SDS011;22123;52.412;20.970;2023-08-20T07:06:51;9.68;;;5.72;;
36061;SDS011;22123;52.412;20.970;2023-08-20T07:09:17;8.13;;;5.43;;
36061;SDS011;22123;52.412;20.970;2023-08-20T07:11:43;6.38;;;4.47;;
36061;SDS011;22123;52.412;20.970;2023-08-20T07:14:09;6.50;;;5.18;;
36061;SDS011;22123;52.412;20.970;2023-08-20T07:16:35;7.20;;;5.45;;
36061;SDS011;22123;52.412;20.970;2023-08-20T07:19:00;9.65;;;4.95;;
36061;SDS011;22123;52.412;20.970;2023-08-20T07:21:26;7.28;;;5.45;;
36061;SDS011;22123;52.412;20.970;2023-08-20T07:23:52;6.78;;;4.75;;
36061;SDS011;22123;52.412;20.970;2023-08-20T07:26:18;5.55;;;4.40;;
36061;SDS011;22123;52.412;20.970;2023-08-20T07:28:44;8.00;;;5.45;;
36061;SDS011;22123;52.412;20.970;2023-08-20T07:31:10;6.70;;;4.70;;
36061;SDS011;22123;52.412;20.970;2023-08-20T07:33:36;6.70;;;5.30;;
36061;SDS011;22123;52.412;20.970;2023-08-20T07:36:02;6.38;;;5.00;;
36061;SDS011;22123;52.412;20.970;2023-08-20T07:38:28;7.97;;;5.72;;
36061;SDS011;22123;52.412;20.970;2023-08-20T07:40:53;5.68;;;5.05;;
36061;SDS011;22123;52.412;20.970;2023-08-20T07:43:19;5.70;;;4.53;;
36061;SDS011;22123;52.412;20.970;2023-08-20T07:45:45;8.52;;;5.85;;
36061;SDS011;22123;52.412;20.970;2023-08-20T07:48:11;6.15;;;5.07;;
36061;SDS011;22123;52.412;20.970;2023-08-20T07:50:37;6.45;;;5.43;;
36061;SDS011;22123;52.412;20.970;2023-08-20T07:53:03;7.57;;;4.82;;
36061;SDS011;22123;52.412;20.970;2023-08-20T07:55:29;8.02;;;5.68;;
36061;SDS011;22123;52.412;20.970;2023-08-20T07:57:55;7.68;;;5.57;;
36061;SDS011;22123;52.412;20.970;2023-08-20T08:00:21;6.90;;;5.03;;
36061;SDS011;22123;52.412;20.970;2023-08-20T08:02:47;5.90;;;5.00;;
36061;SDS011;22123;52.412;20.970;2023-08-20T08:05:13;7.30;;;5.32;;
36061;SDS011;22123;52.412;20.970;2023-08-20T08:07:39;6.40;;;4.97;;
36061;SDS011;22123;52.412;20.970;2023-08-20T08:10:05;8.45;;;6.80;;
36061;SDS011;22123;52.412;20.970;2023-08-20T08:12:31;6.90;;;4.88;;
36061;SDS011;22123;52.412;20.970;2023-08-20T08:14:57;7.25;;;5.80;;
36061;SDS011;22123;52.412;20.970;2023-08-20T08:17:23;6.90;;;5.60;;
36061;SDS011;22123;52.412;20.970;2023-08-20T08:19:49;6.32;;;5.70;;
36061;SDS011;22123;52.412;20.970;2023-08-20T08:22:15;8.05;;;5.10;;
36061;SDS011;22123;52.412;20.970;2023-08-20T08:24:41;9.60;;;5.95;;
36061;SDS011;22123;52.412;20.970;2023-08-20T08:27:07;7.80;;;5.95;;
36061;SDS011;22123;52.412;20.970;2023-08-20T08:29:32;6.05;;;5.45;;
36061;SDS011;22123;52.412;20.970;2023-08-20T08:31:58;7.72;;;6.05;;
36061;SDS011;22123;52.412;20.970;2023-08-20T08:34:25;5.90;;;5.15;;
36061;SDS011;22123;52.412;20.970;2023-08-20T08:36:51;5.55;;;4.93;;
36061;SDS011;22123;52.412;20.970;2023-08-20T08:39:17;5.65;;;4.60;;
36061;SDS011;22123;52.412;20.970;2023-08-20T08:41:43;8.23;;;5.13;;
36061;SDS011;22123;52.412;20.970;2023-08-20T08:44:14;5.97;;;5.30;;
36061;SDS011;22123;52.412;20.970;2023-08-20T08:46:39;5.60;;;4.22;;
36061;SDS011;22123;52.412;20.970;2023-08-20T08:49:05;5.93;;;4.38;;
36061;SDS011;22123;52.412;20.970;2023-08-20T08:51:36;7.47;;;5.43;;
36061;SDS011;22123;52.412;20.970;2023-08-20T08:54:02;6.65;;;5.20;;
36061;SDS011;22123;52.412;20.970;2023-08-20T08:56:29;8.85;;;5.72;;
36061;SDS011;22123;52.412;20.970;2023-08-20T08:58:54;5.70;;;4.88;;
36061;SDS011;22123;52.412;20.970;2023-08-20T09:01:20;7.15;;;6.20;;
36061;SDS011;22123;52.412;20.970;2023-08-20T09:03:47;8.18;;;7.40;;
36061;SDS011;22123;52.412;20.970;2023-08-20T09:06:13;7.30;;;5.88;;
36061;SDS011;22123;52.412;20.970;2023-08-20T09:08:39;6.55;;;5.95;;
36061;SDS011;22123;52.412;20.970;2023-08-20T09:11:05;7.35;;;6.20;;
36061;SDS011;22123;52.412;20.970;2023-08-20T09:13:38;7.53;;;5.97;;
36061;SDS011;22123;52.412;20.970;2023-08-20T09:16:08;5.93;;;5.15;;
36061;SDS011;22123;52.412;20.970;2023-08-20T09:18:42;8.23;;;5.22;;
36061;SDS011;22123;52.412;20.970;2023-08-20T09:21:10;6.57;;;4.85;;
36061;SDS011;22123;52.412;20.970;2023-08-20T09:23:37;5.75;;;5.13;;
36061;SDS011;22123;52.412;20.970;2023-08-20T09:26:04;6.25;;;4.35;;
36061;SDS011;22123;52.412;20.970;2023-08-20T09:28:40;6.05;;;5.10;;
36061;SDS011;22123;52.412;20.970;2023-08-20T09:31:07;6.70;;;5.10;;
36061;SDS011;22123;52.412;20.970;2023-08-20T09:33:33;5.25;;;4.68;;
36061;SDS011;22123;52.412;20.970;2023-08-20T09:35:58;6.10;;;5.00;;
36061;SDS011;22123;52.412;20.970;2023-08-20T09:38:24;5.40;;;4.25;;
36061;SDS011;22123;52.412;20.970;2023-08-20T09:40:51;6.30;;;4.57;;
36061;SDS011;22123;52.412;20.970;2023-08-20T09:43:19;5.65;;;4.60;;
36061;SDS011;22123;52.412;20.970;2023-08-20T09:45:48;7.00;;;5.22;;
36061;SDS011;22123;52.412;20.970;2023-08-20T09:48:17;7.63;;;4.22;;
36061;SDS011;22123;52.412;20.970;2023-08-20T09:50:45;6.05;;;5.30;;
36061;SDS011;22123;52.412;20.970;2023-08-20T09:56:13;6.65;;;4.75;;
36061;SDS011;22123;52.412;20.970;2023-08-20T09:58:48;6.72;;;5.05;;
36061;SDS011;22123;52.412;20.970;2023-08-20T10:01:15;5.35;;;4.20;;
36061;SDS011;22123;52.412;20.970;2023-08-20T10:03:41;6.65;;;4.53;;
36061;SDS011;22123;52.412;20.970;2023-08-20T10:06:08;6.30;;;4.53;;
36061;SDS011;22123;52.412;20.970;2023-08-20T10:08:36;5.07;;;4.13;;
36061;SDS011;22123;52.412;20.970;2023-08-20T10:11:02;5.93;;;4.35;;
36061;SDS011;22123;52.412;20.970;2023-08-20T10:13:28;6.15;;;4.45;;
36061;SDS011;22123;52.412;20.970;2023-08-20T10:15:54;5.47;;;4.82;;
36061;SDS011;22123;52.412;20.970;2023-08-20T10:18:21;5.30;;;4.25;;
36061;SDS011;22123;52.412;20.970;2023-08-20T10:20:50;6.07;;;5.03;;
36061;SDS011;22123;52.412;20.970;2023-08-20T10:23:19;5.32;;;4.82;;
36061;SDS011;22123;52.412;20.970;2023-08-20T10:25:46;4.95;;;4.55;;
36061;SDS011;22123;52.412;20.970;2023-08-20T10:28:33;7.05;;;4.70;;
36061;SDS011;22123;52.412;20.970;2023-08-20T10:33:38;4.63;;;4.22;;
36061;SDS011;22123;52.412;20.970;2023-08-20T10:38:45;6.00;;;5.20;;
36061;SDS011;22123;52.412;20.970;2023-08-20T10:41:11;4.50;;;4.00;;
36061;SDS011;22123;52.412;20.970;2023-08-20T10:43:38;4.70;;;4.20;;
36061;SDS011;22123;52.412;20.970;2023-08-20T10:46:18;6.97;;;4.70;;
36061;SDS011;22123;52.412;20.970;2023-08-20T10:51:17;6.00;;;4.25;;
36061;SDS011;22123;52.412;20.970;2023-08-20T10:53:43;4.38;;;3.97;;
36061;SDS011;22123;52.412;20.970;2023-08-20T10:58:41;10.05;;;7.05;;
36061;SDS011;22123;52.412;20.970;2023-08-20T11:01:15;7.10;;;5.85;;
36061;SDS011;22123;52.412;20.970;2023-08-20T11:03:50;4.95;;;4.38;;
36061;SDS011;22123;52.412;20.970;2023-08-20T11:06:17;5.25;;;4.75;;
36061;SDS011;22123;52.412;20.970;2023-08-20T11:08:44;4.60;;;4.13;;
36061;SDS011;22123;52.412;20.970;2023-08-20T11:11:10;6.32;;;4.45;;
36061;SDS011;22123;52.412;20.970;2023-08-20T11:13:37;4.95;;;3.85;;
36061;SDS011;22123;52.412;20.970;2023-08-20T11:16:03;4.43;;;4.13;;
36061;SDS011;22123;52.412;20.970;2023-08-20T11:18:32;4.88;;;4.20;;
36061;SDS011;22123;52.412;20.970;2023-08-20T11:20:58;3.78;;;3.47;;
36061;SDS011;22123;52.412;20.970;2023-08-20T11:23:24;4.50;;;3.92;;
36061;SDS011;22123;52.412;20.970;2023-08-20T11:25:50;4.70;;;4.25;;
36061;SDS011;22123;52.412;20.970;2023-08-20T11:28:16;4.82;;;4.38;;
36061;SDS011;22123;52.412;20.970;2023-08-20T11:30:42;4.45;;;3.95;;
36061;SDS011;22123;52.412;20.970;2023-08-20T11:33:08;4.80;;;4.40;;
36061;SDS011;22123;52.412;20.970;2023-08-20T11:35:35;4.80;;;4.40;;
36061;SDS011;22123;52.412;20.970;2023-08-20T11:38:02;4.15;;;3.75;;
36061;SDS011;22123;52.412;20.970;2023-08-20T11:40:28;4.70;;;4.10;;
36061;SDS011;22123;52.412;20.970;2023-08-20T11:42:54;4.43;;;4.03;;
36061;SDS011;22123;52.412;20.970;2023-08-20T11:45:20;6.70;;;4.25;;
36061;SDS011;22123;52.412;20.970;2023-08-20T11:47:46;4.50;;;4.10;;
36061;SDS011;22123;52.412;20.970;2023-08-20T11:50:12;4.15;;;3.75;;
36061;SDS011;22123;52.412;20.970;2023-08-20T11:52:38;4.15;;;3.75;;
36061;SDS011;22123;52.412;20.970;2023-08-20T11:55:05;4.47;;;4.05;;
36061;SDS011;22123;52.412;20.970;2023-08-20T11:57:32;5.60;;;4.28;;
36061;SDS011;22123;52.412;20.970;2023-08-20T12:00:03;4.00;;;3.60;;
36061;SDS011;22123;52.412;20.970;2023-08-20T12:02:29;6.07;;;4.45;;
36061;SDS011;22123;52.412;20.970;2023-08-20T12:04:56;5.53;;;4.82;;
36061;SDS011;22123;52.412;20.970;2023-08-20T12:07:25;4.43;;;3.75;;
36061;SDS011;22123;52.412;20.970;2023-08-20T12:09:51;5.28;;;4.13;;
36061;SDS011;22123;52.412;20.970;2023-08-20T12:12:19;4.50;;;4.10;;
36061;SDS011;22123;52.412;20.970;2023-08-20T12:14:45;5.55;;;4.50;;
36061;SDS011;22123;52.412;20.970;2023-08-20T12:17:11;4.68;;;3.75;;
36061;SDS011;22123;52.412;20.970;2023-08-20T12:19:38;5.50;;;4.57;;
36061;SDS011;22123;52.412;20.970;2023-08-20T12:22:05;6.38;;;4.60;;
36061;SDS011;22123;52.412;20.970;2023-08-20T12:24:31;4.82;;;4.43;;
36061;SDS011;22123;52.412;20.970;2023-08-20T12:26:57;6.03;;;3.75;;
36061;SDS011;22123;52.412;20.970;2023-08-20T12:29:22;5.07;;;4.60;;
36061;SDS011;22123;52.412;20.970;2023-08-20T12:31:48;6.30;;;4.43;;
36061;SDS011;22123;52.412;20.970;2023-08-20T12:34:14;4.07;;;3.38;;
36061;SDS011;22123;52.412;20.970;2023-08-20T12:36:40;4.40;;;4.00;;
36061;SDS011;22123;52.412;20.970;2023-08-20T12:39:07;6.03;;;4.68;;
36061;SDS011;22123;52.412;20.970;2023-08-20T12:41:35;4.45;;;3.58;;
36061;SDS011;22123;52.412;20.970;2023-08-20T12:44:06;6.47;;;4.38;;
36061;SDS011;22123;52.412;20.970;2023-08-20T12:46:32;4.72;;;4.32;;
36061;SDS011;22123;52.412;20.970;2023-08-20T12:48:57;4.15;;;3.75;;
36061;SDS011;22123;52.412;20.970;2023-08-20T12:51:23;5.00;;;3.80;;
36061;SDS011;22123;52.412;20.970;2023-08-20T12:53:49;5.07;;;4.50;;
36061;SDS011;22123;52.412;20.970;2023-08-20T12:56:15;4.38;;;3.78;;
36061;SDS011;22123;52.412;20.970;2023-08-20T12:58:42;5.28;;;3.65;;
36061;SDS011;22123;52.412;20.970;2023-08-20T13:01:08;4.93;;;4.43;;
36061;SDS011;22123;52.412;20.970;2023-08-20T13:03:35;6.65;;;4.50;;
36061;SDS011;22123;52.412;20.970;2023-08-20T13:06:02;5.65;;;4.10;;
36061;SDS011;22123;52.412;20.970;2023-08-20T13:08:29;5.05;;;4.07;;
36061;SDS011;22123;52.412;20.970;2023-08-20T13:10:56;6.28;;;4.85;;
36061;SDS011;22123;52.412;20.970;2023-08-20T13:13:22;6.15;;;4.35;;
36061;SDS011;22123;52.412;20.970;2023-08-20T13:15:50;5.50;;;3.90;;
36061;SDS011;22123;52.412;20.970;2023-08-20T13:18:17;4.72;;;4.22;;
36061;SDS011;22123;52.412;20.970;2023-08-20T13:20:43;4.90;;;4.32;;
36061;SDS011;22123;52.412;20.970;2023-08-20T13:23:09;4.60;;;4.10;;
36061;SDS011;22123;52.412;20.970;2023-08-20T13:25:35;4.70;;;4.18;;
36061;SDS011;22123;52.412;20.970;2023-08-20T13:28:01;5.40;;;4.38;;
36061;SDS011;22123;52.412;20.970;2023-08-20T13:30:27;4.80;;;4.10;;
36061;SDS011;22123;52.412;20.970;2023-08-20T13:32:54;6.25;;;4.43;;
36061;SDS011;22123;52.412;20.970;2023-08-20T13:35:19;4.93;;;4.03;;
36061;SDS011;22123;52.412;20.970;2023-08-20T13:37:45;6.50;;;4.90;;
36061;SDS011;22123;52.412;20.970;2023-08-20T13:40:12;6.07;;;4.25;;
36061;SDS011;22123;52.412;20.970;2023-08-20T13:42:39;5.95;;;4.32;;
36061;SDS011;22123;52.412;20.970;2023-08-20T13:45:06;5.13;;;3.85;;
36061;SDS011;22123;52.412;20.970;2023-08-20T13:47:33;4.80;;;4.20;;
36061;SDS011;22123;52.412;20.970;2023-08-20T13:49:59;5.72;;;4.85;;
36061;SDS011;22123;52.412;20.970;2023-08-20T13:52:25;4.72;;;4.15;;
36061;SDS011;22123;52.412;20.970;2023-08-20T13:54:50;4.82;;;4.28;;
36061;SDS011;22123;52.412;20.970;2023-08-20T13:57:16;5.45;;;4.15;;
36061;SDS011;22123;52.412;20.970;2023-08-20T13:59:42;5.57;;;4.65;;
36061;SDS011;22123;52.412;20.970;2023-08-20T14:02:10;4.82;;;4.30;;
36061;SDS011;22123;52.412;20.970;2023-08-20T14:04:36;3.97;;;3.67;;
36061;SDS011;22123;52.412;20.970;2023-08-20T14:07:02;4.63;;;4.07;;
36061;SDS011;22123;52.412;20.970;2023-08-20T14:09:28;5.00;;;4.00;;
36061;SDS011;22123;52.412;20.970;2023-08-20T14:11:54;5.13;;;4.47;;
36061;SDS011;22123;52.412;20.970;2023-08-20T14:14:20;5.53;;;4.35;;
36061;SDS011;22123;52.412;20.970;2023-08-20T14:16:48;4.28;;;3.88;;
36061;SDS011;22123;52.412;20.970;2023-08-20T14:19:15;6.32;;;4.93;;
36061;SDS011;22123;52.412;20.970;2023-08-20T14:21:41;4.78;;;4.30;;
36061;SDS011;22123;52.412;20.970;2023-08-20T14:24:07;5.20;;;4.70;;
36061;SDS011;22123;52.412;20.970;2023-08-20T14:26:33;5.45;;;4.95;;
36061;SDS011;22123;52.412;20.970;2023-08-20T14:28:59;5.90;;;4.55;;
36061;SDS011;22123;52.412;20.970;2023-08-20T14:31:25;5.22;;;4.18;;
36061;SDS011;22123;52.412;20.970;2023-08-20T14:33:50;6.22;;;5.18;;
36061;SDS011;22123;52.412;20.970;2023-08-20T14:36:16;4.57;;;4.18;;
36061;SDS011;22123;52.412;20.970;2023-08-20T14:38:42;5.65;;;4.10;;
36061;SDS011;22123;52.412;20.970;2023-08-20T14:41:09;6.35;;;5.55;;
36061;SDS011;22123;52.412;20.970;2023-08-20T14:43:35;5.90;;;4.45;;
36061;SDS011;22123;52.412;20.970;2023-08-20T14:46:01;7.40;;;5.07;;
36061;SDS011;22123;52.412;20.970;2023-08-20T14:48:27;5.75;;;4.55;;
36061;SDS011;22123;52.412;20.970;2023-08-20T14:50:53;6.65;;;5.35;;
36061;SDS011;22123;52.412;20.970;2023-08-20T14:53:19;6.05;;;4.97;;
36061;SDS011;22123;52.412;20.970;2023-08-20T14:55:45;5.57;;;5.05;;
36061;SDS011;22123;52.412;20.970;2023-08-20T14:58:12;6.22;;;5.50;;
36061;SDS011;22123;52.412;20.970;2023-08-20T15:00:38;5.90;;;5.22;;
36061;SDS011;22123;52.412;20.970;2023-08-20T15:03:04;5.82;;;4.90;;
36061;SDS011;22123;52.412;20.970;2023-08-20T15:05:30;6.85;;;5.22;;
36061;SDS011;22123;52.412;20.970;2023-08-20T15:07:56;8.50;;;6.18;;
36061;SDS011;22123;52.412;20.970;2023-08-20T15:10:22;7.50;;;5.55;;
36061;SDS011;22123;52.412;20.970;2023-08-20T15:12:48;7.20;;;5.63;;
36061;SDS011;22123;52.412;20.970;2023-08-20T15:15:14;7.65;;;5.68;;
36061;SDS011;22123;52.412;20.970;2023-08-20T15:17:39;6.43;;;5.25;;
36061;SDS011;22123;52.412;20.970;2023-08-20T15:20:05;7.15;;;5.80;;
36061;SDS011;22123;52.412;20.970;2023-08-20T15:22:32;7.45;;;5.40;;
36061;SDS011;22123;52.412;20.970;2023-08-20T15:24:57;6.47;;;4.90;;
36061;SDS011;22123;52.412;20.970;2023-08-20T15:27:23;6.30;;;4.80;;
36061;SDS011;22123;52.412;20.970;2023-08-20T15:29:49;5.85;;;4.63;;
36061;SDS011;22123;52.412;20.970;2023-08-20T15:32:15;5.40;;;4.90;;
36061;SDS011;22123;52.412;20.970;2023-08-20T15:34:42;6.28;;;4.93;;
36061;SDS011;22123;52.412;20.970;2023-08-20T15:37:08;5.05;;;4.63;;
36061;SDS011;22123;52.412;20.970;2023-08-20T15:39:34;5.40;;;4.88;;
36061;SDS011;22123;52.412;20.970;2023-08-20T15:42:00;5.97;;;5.43;;
36061;SDS011;22123;52.412;20.970;2023-08-20T15:44:26;6.32;;;5.35;;
36061;SDS011;22123;52.412;20.970;2023-08-20T15:46:52;5.70;;;4.70;;
36061;SDS011;22123;52.412;20.970;2023-08-20T15:49:18;4.72;;;4.03;;
36061;SDS011;22123;52.412;20.970;2023-08-20T15:51:44;6.38;;;3.78;;
36061;SDS011;22123;52.412;20.970;2023-08-20T15:54:10;5.20;;;4.68;;
36061;SDS011;22123;52.412;20.970;2023-08-20T15:56:37;6.03;;;4.72;;
36061;SDS011;22123;52.412;20.970;2023-08-20T15:59:06;4.80;;;4.05;;
36061;SDS011;22123;52.412;20.970;2023-08-20T16:01:32;4.93;;;4.38;;
36061;SDS011;22123;52.412;20.970;2023-08-20T16:03:57;5.43;;;4.82;;
36061;SDS011;22123;52.412;20.970;2023-08-20T16:06:24;6.03;;;4.57;;
36061;SDS011;22123;52.412;20.970;2023-08-20T16:08:50;4.55;;;4.03;;
36061;SDS011;22123;52.412;20.970;2023-08-20T16:11:16;5.57;;;4.15;;
36061;SDS011;22123;52.412;20.970;2023-08-20T16:13:44;4.82;;;4.35;;
36061;SDS011;22123;52.412;20.970;2023-08-20T16:16:10;7.30;;;5.22;;
36061;SDS011;22123;52.412;20.970;2023-08-20T16:18:36;5.45;;;4.35;;
36061;SDS011;22123;52.412;20.970;2023-08-20T16:21:02;4.55;;;4.15;;
36061;SDS011;22123;52.412;20.970;2023-08-20T16:23:27;4.50;;;3.65;;
36061;SDS011;22123;52.412;20.970;2023-08-20T16:25:53;5.05;;;4.40;;
36061;SDS011;22123;52.412;20.970;2023-08-20T16:28:19;5.65;;;3.88;;
36061;SDS011;22123;52.412;20.970;2023-08-20T16:30:45;9.80;;;6.18;;
36061;SDS011;22123;52.412;20.970;2023-08-20T16:33:11;6.18;;;4.93;;
36061;SDS011;22123;52.412;20.970;2023-08-20T16:35:37;5.40;;;4.28;;
36061;SDS011;22123;52.412;20.970;2023-08-20T16:38:03;9.13;;;6.05;;
36061;SDS011;22123;52.412;20.970;2023-08-20T16:40:29;10.70;;;9.43;;
36061;SDS011;22123;52.412;20.970;2023-08-20T16:42:55;10.00;;;7.30;;
36061;SDS011;22123;52.412;20.970;2023-08-20T16:45:21;7.18;;;6.45;;
36061;SDS011;22123;52.412;20.970;2023-08-20T16:47:47;5.38;;;4.88;;